Time;durP1;ratioP1;P1;durP2;ratioP2;P2;SDS_P1;SDS_P2;PMS_P1;PMS_P2;Temp;Humidity;BMP_temperature;BMP_pressure;BME280_temperature;BME280_humidity;BME280_pressure;Samples;Min_cycle;Max_cycle;Signal;HPM_P1;HPM_P2
2022/04/03 00:00:31;;;;;;;7.13;3.08;;;1.30;99.90;;;;;;5016301;28;20050;-70
2022/04/03 00:02:58;;;;;;;7.40;3.72;;;1.30;99.90;;;;;;5016394;28;20033;-70
2022/04/03 00:05:23;;;;;;;5.38;3.40;;;1.40;99.90;;;;;;5016531;28;20147;-71
2022/04/03 00:07:49;;;;;;;5.88;3.38;;;1.40;99.90;;;;;;4998652;28;20488;-69
2022/04/03 00:10:15;;;;;;;8.35;3.88;;;1.50;99.90;;;;;;5015279;28;20140;-70
2022/04/03 00:12:41;;;;;;;7.93;4.07;;;1.50;99.90;;;;;;5016484;28;20097;-73
2022/04/03 00:15:07;;;;;;;6.03;3.70;;;1.60;99.90;;;;;;5015966;28;20459;-69
2022/04/03 00:17:33;;;;;;;5.35;3.60;;;1.60;99.90;;;;;;5016140;28;20045;-70
2022/04/03 00:19:59;;;;;;;9.15;3.60;;;1.60;99.90;;;;;;5015901;28;20045;-69
2022/04/03 00:22:25;;;;;;;5.90;3.33;;;1.70;99.90;;;;;;4998059;28;20463;-69
2022/04/03 00:24:51;;;;;;;7.43;3.65;;;1.70;99.90;;;;;;5015651;28;20129;-72
2022/04/03 00:27:18;;;;;;;8.95;4.22;;;1.70;99.90;;;;;;5015479;28;20345;-68
2022/04/03 00:29:43;;;;;;;7.78;4.15;;;1.70;99.90;;;;;;5015682;28;20077;-72
2022/04/03 00:32:09;;;;;;;7.30;3.50;;;1.70;99.90;;;;;;5015930;28;20111;-69
2022/04/03 00:34:35;;;;;;;6.68;3.80;;;1.80;99.90;;;;;;4998601;28;20041;-69
2022/04/03 00:37:01;;;;;;;7.43;4.28;;;1.90;99.90;;;;;;5015630;28;20033;-72
2022/04/03 00:39:26;;;;;;;6.50;3.72;;;1.90;99.90;;;;;;5015573;28;20057;-71
2022/04/03 00:41:53;;;;;;;9.55;3.55;;;2.00;99.90;;;;;;5015171;28;20113;-71
2022/04/03 00:44:18;;;;;;;6.78;4.00;;;2.00;99.90;;;;;;5015474;28;20042;-70
2022/04/03 00:46:49;;;;;;;6.13;3.75;;;2.10;99.90;;;;;;5015740;28;20322;-69
2022/04/03 00:49:14;;;;;;;6.85;3.50;;;2.10;99.90;;;;;;4998102;28;20056;-69
2022/04/03 00:51:40;;;;;;;6.38;3.50;;;2.10;99.90;;;;;;5015407;28;20343;-69
2022/04/03 00:54:07;;;;;;;6.18;3.70;;;2.10;99.90;;;;;;5015539;28;20041;-70
2022/04/03 00:56:34;;;;;;;5.53;3.08;;;2.10;99.90;;;;;;5015875;28;20046;-69
2022/04/03 00:59:00;;;;;;;7.18;3.83;;;2.20;99.90;;;;;;5015083;28;20042;-69
2022/04/03 01:01:25;;;;;;;10.98;4.85;;;2.20;99.90;;;;;;5015434;28;20096;-72
2022/04/03 01:03:51;;;;;;;7.53;3.55;;;2.20;99.90;;;;;;5015303;28;20045;-69
2022/04/03 01:06:17;;;;;;;5.65;3.17;;;2.20;99.90;;;;;;5015110;28;20038;-70
2022/04/03 01:08:43;;;;;;;6.80;3.65;;;2.20;99.90;;;;;;5015258;28;20045;-70
2022/04/03 01:11:13;;;;;;;6.20;3.20;;;2.30;99.90;;;;;;5015569;28;20041;-68
2022/04/03 01:13:46;;;;;;;5.22;3.10;;;2.30;99.90;;;;;;5015088;28;20049;-71
2022/04/03 01:16:11;;;;;;;5.20;3.45;;;2.40;99.90;;;;;;5015354;28;20034;-71
2022/04/03 01:18:37;;;;;;;6.82;3.30;;;2.30;99.90;;;;;;4997835;28;20053;-70
2022/04/03 01:21:03;;;;;;;5.07;2.95;;;2.30;99.90;;;;;;5001654;28;20467;-70
2022/04/03 01:23:28;;;;;;;6.15;2.95;;;2.30;99.90;;;;;;5021630;28;20129;-70
2022/04/03 01:25:54;;;;;;;6.22;3.83;;;2.40;99.90;;;;;;5022182;28;20056;-70
2022/04/03 01:28:20;;;;;;;4.53;3.05;;;2.40;99.90;;;;;;5004923;28;20042;-70
2022/04/03 01:30:45;;;;;;;4.82;3.20;;;2.40;99.90;;;;;;5004450;28;20101;-69
2022/04/03 01:33:11;;;;;;;4.93;2.83;;;2.40;99.90;;;;;;5021619;28;20037;-70
2022/04/03 01:35:36;;;;;;;8.90;4.45;;;2.50;99.90;;;;;;5021218;28;20069;-70
2022/04/03 01:38:02;;;;;;;4.93;2.70;;;2.40;99.90;;;;;;5021518;28;20045;-69
2022/04/03 01:40:28;;;;;;;4.78;3.10;;;2.40;99.90;;;;;;5021515;28;20121;-70
2022/04/03 01:42:53;;;;;;;4.10;2.97;;;2.50;99.90;;;;;;5021453;28;20506;-71
2022/04/03 01:45:20;;;;;;;5.07;3.53;;;2.40;99.90;;;;;;5021534;28;20524;-70
2022/04/03 01:47:46;;;;;;;5.90;3.08;;;2.40;99.90;;;;;;5021276;28;20038;-69
2022/04/03 01:50:11;;;;;;;4.60;2.92;;;2.30;99.90;;;;;;5003911;28;20128;-69
2022/04/03 01:52:37;;;;;;;4.45;2.83;;;2.30;99.90;;;;;;5021383;28;20049;-70
2022/04/03 01:55:03;;;;;;;6.68;2.80;;;2.30;99.90;;;;;;5003720;28;20038;-71
2022/04/03 01:57:29;;;;;;;6.68;3.40;;;2.30;99.90;;;;;;5021521;28;20038;-70
2022/04/03 01:59:54;;;;;;;7.85;3.53;;;2.30;99.90;;;;;;5020910;28;20060;-72
2022/04/03 02:02:20;;;;;;;5.60;3.20;;;2.30;99.90;;;;;;5021427;28;20054;-70
2022/04/03 02:04:46;;;;;;;7.07;3.03;;;2.30;99.90;;;;;;5021031;28;20057;-69
2022/04/03 02:07:12;;;;;;;4.18;3.13;;;2.30;99.90;;;;;;5021116;28;20042;-70
2022/04/03 02:09:38;;;;;;;4.88;3.17;;;2.30;99.90;;;;;;5021257;28;20124;-72
2022/04/03 02:12:05;;;;;;;9.40;3.72;;;2.30;99.90;;;;;;5021256;28;20381;-69
2022/04/03 02:14:30;;;;;;;6.95;3.15;;;2.30;99.90;;;;;;5021295;28;20042;-70
2022/04/03 02:16:57;;;;;;;5.10;3.38;;;2.30;99.90;;;;;;5003804;28;20042;-70
2022/04/03 02:19:23;;;;;;;4.72;3.03;;;2.20;99.90;;;;;;5020842;28;20065;-68
2022/04/03 02:21:49;;;;;;;4.22;3.28;;;2.20;99.90;;;;;;5021033;28;20104;-71
2022/04/03 02:24:14;;;;;;;8.20;3.40;;;2.20;99.90;;;;;;5021477;28;20383;-71
2022/04/03 02:26:40;;;;;;;5.90;3.28;;;2.10;99.90;;;;;;5020936;28;20037;-72
2022/04/03 02:29:06;;;;;;;8.90;3.38;;;2.00;99.90;;;;;;5020957;28;20115;-69
2022/04/03 02:31:32;;;;;;;8.88;3.63;;;2.00;99.90;;;;;;5019432;28;20129;-70
2022/04/03 02:33:57;;;;;;;7.22;3.10;;;2.00;99.90;;;;;;5017544;28;20038;-68
2022/04/03 02:36:23;;;;;;;8.05;3.22;;;2.00;99.90;;;;;;5017889;28;20041;-72
2022/04/03 02:38:49;;;;;;;6.63;2.92;;;1.90;99.90;;;;;;5017995;28;20046;-70
2022/04/03 02:41:15;;;;;;;4.57;3.30;;;1.90;99.90;;;;;;5018121;28;20045;-70
2022/04/03 02:43:40;;;;;;;8.05;3.30;;;1.80;99.90;;;;;;5000517;28;20041;-70
2022/04/03 02:46:06;;;;;;;5.20;3.15;;;1.80;99.90;;;;;;5017607;28;20049;-70
2022/04/03 02:48:33;;;;;;;4.20;3.13;;;1.70;99.90;;;;;;5017618;28;20052;-71
2022/04/03 02:50:59;;;;;;;4.75;3.05;;;1.60;99.90;;;;;;5017380;28;20432;-70
2022/04/03 02:53:25;;;;;;;9.05;4.15;;;1.60;99.90;;;;;;5017900;28;20041;-71
2022/04/03 02:55:51;;;;;;;4.47;3.00;;;1.60;99.90;;;;;;5032928;28;20053;-72
2022/04/03 02:58:17;;;;;;;5.65;3.47;;;1.60;99.90;;;;;;5017353;28;20038;-69
2022/04/03 03:00:42;;;;;;;5.13;2.97;;;1.50;99.90;;;;;;5000520;28;20049;-69
2022/04/03 03:03:09;;;;;;;7.05;3.30;;;1.50;99.90;;;;;;5017089;28;20042;-71
2022/04/03 03:05:34;;;;;;;5.00;3.45;;;1.50;99.90;;;;;;5017332;28;20049;-70
2022/04/03 03:08:01;;;;;;;5.30;3.05;;;1.50;99.90;;;;;;5016894;28;20054;-70
2022/04/03 03:10:27;;;;;;;4.05;3.25;;;1.40;99.90;;;;;;5017399;28;20337;-69
2022/04/03 03:12:53;;;;;;;5.90;3.85;;;1.40;99.90;;;;;;5017354;28;20160;-71
2022/04/03 03:15:19;;;;;;;3.28;2.92;;;1.50;99.90;;;;;;5017329;28;20038;-70
2022/04/03 03:17:46;;;;;;;5.10;3.42;;;1.40;99.90;;;;;;5017078;28;20044;-69
2022/04/03 03:20:12;;;;;;;5.75;3.63;;;1.40;99.90;;;;;;5017054;28;20136;-70
2022/04/03 03:22:37;;;;;;;5.32;3.10;;;1.40;99.90;;;;;;5017003;28;20045;-68
2022/04/03 03:25:05;;;;;;;5.43;3.53;;;1.50;99.90;;;;;;5017233;28;20038;-68
2022/04/03 03:27:31;;;;;;;6.18;3.17;;;1.40;99.90;;;;;;4999376;28;20108;-71
2022/04/03 03:29:57;;;;;;;4.10;3.00;;;1.40;99.90;;;;;;5016572;28;20108;-71
2022/04/03 03:32:24;;;;;;;4.00;3.17;;;1.40;99.90;;;;;;5016757;28;20318;-70
2022/04/03 03:34:50;;;;;;;5.00;2.95;;;1.30;99.90;;;;;;5017627;28;20068;-70
2022/04/03 03:37:16;;;;;;;6.20;2.70;;;1.30;99.90;;;;;;5016666;28;20052;-70
2022/04/03 03:39:42;;;;;;;4.40;3.10;;;1.20;99.90;;;;;;4999122;28;20125;-72
2022/04/03 03:42:07;;;;;;;4.50;3.03;;;1.20;99.90;;;;;;5016634;28;20042;-70
2022/04/03 03:44:33;;;;;;;5.65;2.80;;;1.30;99.90;;;;;;5013617;28;20041;-72
2022/04/03 03:46:58;;;;;;;6.82;2.97;;;1.30;99.90;;;;;;4998929;28;20042;-69
2022/04/03 03:49:26;;;;;;;6.00;2.63;;;1.20;99.90;;;;;;5016450;28;20116;-69
2022/04/03 03:51:51;;;;;;;3.70;2.80;;;1.30;99.90;;;;;;4999682;28;20408;-70
2022/04/03 03:54:17;;;;;;;6.07;2.92;;;1.30;99.90;;;;;;5016339;28;20038;-69
2022/04/03 03:56:43;;;;;;;3.42;2.95;;;1.20;99.90;;;;;;5016286;28;20092;-69
2022/04/03 03:59:08;;;;;;;5.82;2.92;;;1.20;99.90;;;;;;5016101;28;20058;-69
2022/04/03 04:01:34;;;;;;;4.22;2.92;;;1.20;99.90;;;;;;5016014;28;20046;-68
2022/04/03 04:04:00;;;;;;;5.80;3.00;;;1.10;99.90;;;;;;5016739;28;20045;-69
2022/04/03 04:06:26;;;;;;;5.40;2.85;;;1.10;99.90;;;;;;5016433;28;20049;-71
2022/04/03 04:08:51;;;;;;;3.42;3.00;;;1.10;99.90;;;;;;5016074;28;20468;-71
2022/04/03 04:11:17;;;;;;;3.38;3.00;;;1.00;99.90;;;;;;5016534;28;20049;-70
2022/04/03 04:13:43;;;;;;;6.18;2.83;;;1.00;99.90;;;;;;5016082;28;20468;-71
2022/04/03 04:16:10;;;;;;;4.13;2.85;;;1.00;99.90;;;;;;4998748;28;20042;-68
2022/04/03 04:18:36;;;;;;;6.55;3.00;;;1.00;99.90;;;;;;5032412;28;20046;-69
2022/04/03 04:21:03;;;;;;;9.07;3.00;;;0.90;99.90;;;;;;5016078;28;20428;-71
2022/04/03 04:23:30;;;;;;;4.53;2.85;;;0.90;99.90;;;;;;5016202;28;20092;-69
2022/04/03 04:25:55;;;;;;;7.28;2.97;;;0.90;99.90;;;;;;5015818;28;20347;-69
2022/04/03 04:28:21;;;;;;;5.80;2.70;;;0.90;99.90;;;;;;5015987;28;20046;-70
2022/04/03 04:30:46;;;;;;;4.70;2.78;;;0.90;99.90;;;;;;5015518;28;20038;-68
2022/04/03 04:33:12;;;;;;;4.82;3.03;;;0.90;99.90;;;;;;5015737;28;20046;-71
2022/04/03 04:35:38;;;;;;;4.53;2.75;;;0.90;99.90;;;;;;5015813;28;20415;-69
2022/04/03 04:38:04;;;;;;;5.88;2.22;;;0.80;99.90;;;;;;4999062;28;20057;-69
2022/04/03 04:40:30;;;;;;;4.45;2.28;;;0.90;99.90;;;;;;4998742;28;20064;-69
2022/04/03 04:42:55;;;;;;;5.70;2.70;;;0.80;99.90;;;;;;5015804;28;20091;-69
2022/04/03 04:45:22;;;;;;;4.70;2.50;;;0.80;99.90;;;;;;5015134;28;20113;-70
2022/04/03 04:47:48;;;;;;;6.68;2.25;;;0.80;99.90;;;;;;5015433;28;20060;-70
2022/04/03 04:50:14;;;;;;;5.15;2.40;;;0.80;99.90;;;;;;4997904;28;20113;-71
2022/04/03 04:52:41;;;;;;;5.82;2.55;;;0.90;99.90;;;;;;5015394;28;20456;-69
2022/04/03 04:55:08;;;;;;;5.55;2.55;;;0.80;99.90;;;;;;5015136;28;20380;-70
2022/04/03 04:57:35;;;;;;;7.90;2.58;;;0.80;99.90;;;;;;5015608;28;20359;-70
2022/04/03 05:00:01;;;;;;;5.85;2.38;;;0.80;99.90;;;;;;5015220;28;20057;-69
2022/04/03 05:02:26;;;;;;;6.25;2.20;;;0.90;99.90;;;;;;5015076;28;20053;-68
2022/04/03 05:04:52;;;;;;;6.55;2.40;;;1.00;99.90;;;;;;5015333;28;20034;-73
2022/04/03 05:07:18;;;;;;;5.32;2.28;;;1.10;99.90;;;;;;5015072;28;20108;-70
2022/04/03 05:09:46;;;;;;;6.70;2.60;;;1.30;99.90;;;;;;4998016;28;20050;-70
2022/04/03 05:12:13;;;;;;;6.82;2.40;;;1.20;99.90;;;;;;5015616;28;20038;-69
2022/04/03 05:14:39;;;;;;;7.30;2.13;;;1.40;99.90;;;;;;5014933;28;20042;-69
2022/04/03 05:17:05;;;;;;;6.93;2.78;;;1.40;99.90;;;;;;5015036;28;20048;-71
2022/04/03 05:19:32;;;;;;;5.03;2.00;;;1.40;99.90;;;;;;5015401;28;20184;-69
2022/04/03 05:21:58;;;;;;;7.68;2.50;;;1.40;99.90;;;;;;4981811;28;20045;-70
2022/04/03 05:24:24;;;;;;;4.38;1.58;;;1.40;99.90;;;;;;5015035;28;20364;-70
2022/04/03 05:26:50;;;;;;;4.80;1.70;;;1.50;99.90;;;;;;5015201;28;20060;-70
2022/04/03 05:29:15;;;;;;;6.03;2.03;;;1.50;99.90;;;;;;5014705;28;20037;-71
2022/04/03 05:31:42;;;;;;;3.97;1.70;;;1.50;99.90;;;;;;4998277;28;20045;-69
2022/04/03 05:34:08;;;;;;;6.22;2.20;;;1.50;99.90;;;;;;5014935;28;20045;-68
2022/04/03 05:36:35;;;;;;;3.92;2.30;;;1.50;99.90;;;;;;5014879;28;20045;-70
2022/04/03 05:39:04;;;;;;;4.80;1.77;;;1.40;99.90;;;;;;5015349;28;20343;-71
2022/04/03 05:41:30;;;;;;;7.80;2.60;;;1.50;99.90;;;;;;5014595;28;20440;-69
2022/04/03 05:43:56;;;;;;;3.08;2.00;;;1.50;99.90;;;;;;5014753;28;20136;-70
2022/04/03 05:46:23;;;;;;;4.20;2.22;;;1.50;99.90;;;;;;5014744;28;20409;-70
2022/04/03 05:48:48;;;;;;;3.10;1.80;;;1.50;99.90;;;;;;5014994;28;20448;-70
2022/04/03 05:51:14;;;;;;;3.28;1.95;;;1.50;99.90;;;;;;5014775;28;20050;-69
2022/04/03 05:53:41;;;;;;;3.63;2.10;;;1.60;99.90;;;;;;5015088;28;20053;-71
2022/04/03 05:56:07;;;;;;;6.82;3.42;;;1.70;99.90;;;;;;5014810;28;20108;-70
2022/04/03 05:58:33;;;;;;;3.22;2.20;;;1.80;99.90;;;;;;4997077;28;20104;-68
2022/04/03 06:00:59;;;;;;;4.60;2.15;;;1.90;99.90;;;;;;5014715;28;20038;-70
2022/04/03 06:03:24;;;;;;;9.27;2.50;;;1.90;99.90;;;;;;5014640;28;20038;-69
2022/04/03 06:05:51;;;;;;;6.22;2.50;;;2.00;99.90;;;;;;5015089;28;20432;-69
2022/04/03 06:08:17;;;;;;;8.00;3.13;;;2.10;99.90;;;;;;5016864;28;20444;-71
2022/04/03 06:10:43;;;;;;;3.15;2.33;;;2.20;99.90;;;;;;5018290;28;20042;-69
2022/04/03 06:13:09;;;;;;;7.32;2.03;;;2.30;99.90;;;;;;5018132;28;20042;-69
2022/04/03 06:15:40;;;;;;;5.88;2.10;;;2.40;99.90;;;;;;5018334;28;20053;-70
2022/04/03 06:18:08;;;;;;;3.95;2.00;;;2.50;99.90;;;;;;5018208;28;20048;-68
2022/04/03 06:20:34;;;;;;;6.05;2.13;;;2.60;99.90;;;;;;5018112;28;20081;-70
2022/04/03 06:23:01;;;;;;;5.30;2.42;;;2.60;99.90;;;;;;5001115;28;20053;-70
2022/04/03 06:25:26;;;;;;;4.78;1.95;;;2.70;99.90;;;;;;5017754;28;20394;-70
2022/04/03 06:27:53;;;;;;;6.05;2.63;;;2.70;99.90;;;;;;5017985;28;20125;-70
2022/04/03 06:30:19;;;;;;;6.97;2.28;;;2.70;99.90;;;;;;5018257;28;20038;-69
2022/04/03 06:32:45;;;;;;;7.20;1.80;;;2.80;99.90;;;;;;5018363;28;20121;-70
2022/04/03 06:35:10;;;;;;;5.88;1.98;;;2.90;99.90;;;;;;5018000;28;20476;-71
2022/04/03 06:37:37;;;;;;;7.97;1.98;;;3.10;99.90;;;;;;5017826;28;20351;-71
2022/04/03 06:40:04;;;;;;;4.95;2.03;;;3.20;99.90;;;;;;5017638;28;20344;-71
2022/04/03 06:42:31;;;;;;;5.78;1.90;;;3.30;99.90;;;;;;5018243;28;20033;-71
2022/04/03 06:44:58;;;;;;;3.50;1.95;;;3.40;99.90;;;;;;5017780;28;20041;-69
2022/04/03 06:47:24;;;;;;;2.85;2.00;;;3.50;99.90;;;;;;5017543;28;20056;-70
2022/04/03 06:49:50;;;;;;;4.07;1.60;;;3.50;99.90;;;;;;5017894;28;20042;-70
2022/04/03 06:52:15;;;;;;;5.97;1.60;;;3.60;99.90;;;;;;5017727;28;20447;-68
2022/04/03 06:54:41;;;;;;;3.85;1.48;;;3.70;99.90;;;;;;5017277;28;20065;-71
2022/04/03 06:57:06;;;;;;;6.25;1.85;;;3.70;99.90;;;;;;5017160;28;20042;-70
2022/04/03 06:59:32;;;;;;;3.70;1.52;;;3.80;99.90;;;;;;5017235;28;20050;-68
2022/04/03 07:01:58;;;;;;;5.63;1.35;;;3.90;99.90;;;;;;5017852;28;20125;-71
2022/04/03 07:04:24;;;;;;;6.65;1.55;;;4.00;99.90;;;;;;5017693;28;20150;-70
2022/04/03 07:06:49;;;;;;;5.05;1.67;;;4.10;99.90;;;;;;5017388;28;20124;-69
2022/04/03 07:09:15;;;;;;;4.45;1.60;;;4.10;99.90;;;;;;5017080;28;20512;-69
2022/04/03 07:11:40;;;;;;;3.50;1.52;;;4.10;99.90;;;;;;5016719;28;20534;-70
2022/04/03 07:14:06;;;;;;;4.10;1.13;;;4.20;99.90;;;;;;5017416;28;20081;-69
2022/04/03 07:16:31;;;;;;;8.73;1.52;;;4.00;99.90;;;;;;5017221;28;20041;-70
2022/04/03 07:18:57;;;;;;;3.85;1.48;;;4.00;99.90;;;;;;5016520;28;20077;-70
2022/04/03 07:21:23;;;;;;;2.55;1.30;;;3.90;99.90;;;;;;5017164;28;20053;-68
2022/04/03 07:23:49;;;;;;;4.07;1.30;;;3.80;99.90;;;;;;5016437;28;20464;-70
2022/04/03 07:26:15;;;;;;;5.25;1.50;;;3.80;99.90;;;;;;5016813;28;20053;-69
2022/04/03 07:28:40;;;;;;;5.55;1.83;;;3.90;99.90;;;;;;4999864;28;20049;-68
2022/04/03 07:31:06;;;;;;;2.63;1.10;;;4.00;99.90;;;;;;5016935;28;20037;-68
2022/04/03 07:33:32;;;;;;;2.53;1.50;;;4.00;99.90;;;;;;5016792;28;20080;-68
2022/04/03 07:35:57;;;;;;;3.78;1.25;;;4.10;99.90;;;;;;5017172;28;20157;-68
2022/04/03 07:38:23;;;;;;;1.85;1.00;;;4.10;99.90;;;;;;5016981;28;20073;-70
2022/04/03 07:40:49;;;;;;;1.52;1.23;;;4.20;99.90;;;;;;5016540;28;20080;-70
2022/04/03 07:43:17;;;;;;;2.55;0.80;;;4.30;99.90;;;;;;5016704;28;20045;-70
2022/04/03 07:45:44;;;;;;;2.30;0.90;;;4.40;99.90;;;;;;4999731;28;20045;-71
2022/04/03 07:48:09;;;;;;;3.70;0.77;;;4.40;99.90;;;;;;5016521;28;20049;-70
2022/04/03 07:50:35;;;;;;;2.38;1.42;;;4.60;99.90;;;;;;5016498;28;20045;-70
2022/04/03 07:53:00;;;;;;;1.63;1.08;;;4.70;99.90;;;;;;5016434;28;20079;-68
2022/04/03 07:55:26;;;;;;;2.10;1.30;;;4.70;99.90;;;;;;5016016;28;20057;-73
2022/04/03 07:57:52;;;;;;;2.33;1.23;;;4.80;99.90;;;;;;5016242;28;20042;-70
2022/04/03 08:00:17;;;;;;;2.05;1.20;;;4.80;99.90;;;;;;5016374;28;20432;-72
2022/04/03 08:02:43;;;;;;;3.70;1.17;;;4.80;99.90;;;;;;4999346;28;20077;-71
2022/04/03 08:05:09;;;;;;;2.55;1.15;;;4.90;99.90;;;;;;4998817;28;20133;-70
2022/04/03 08:07:45;;;;;;;3.88;1.65;;;4.90;99.90;;;;;;5015990;28;20042;-70
2022/04/03 08:10:16;;;;;;;4.93;2.05;;;4.90;99.90;;;;;;5015861;28;20333;-69
2022/04/03 08:12:43;;;;;;;4.78;1.88;;;4.90;99.90;;;;;;5016104;28;20042;-69
2022/04/03 08:15:12;;;;;;;5.22;2.22;;;5.00;99.90;;;;;;5016074;28;20042;-70
2022/04/03 08:17:39;;;;;;;2.63;1.38;;;4.90;99.90;;;;;;5029319;28;20045;-70
2022/04/03 08:20:08;;;;;;;6.20;1.98;;;5.00;99.90;;;;;;5015999;28;20049;-71
2022/04/03 08:22:34;;;;;;;4.38;1.60;;;4.90;99.90;;;;;;4998866;28;20054;-69
2022/04/03 08:24:59;;;;;;;3.35;1.55;;;5.00;99.90;;;;;;4998751;28;20046;-68
2022/04/03 08:27:39;;;;;;;7.68;1.35;;;5.10;99.90;;;;;;5016223;28;20336;-68
2022/04/03 08:30:05;;;;;;;5.45;1.73;;;5.10;99.90;;;;;;5014988;28;20046;-71
2022/04/03 08:32:30;;;;;;;4.30;1.15;;;5.10;99.90;;;;;;4995753;28;20057;-69
2022/04/03 08:34:56;;;;;;;2.72;1.27;;;5.10;99.90;;;;;;5015362;28;20107;-70
2022/04/03 08:37:24;;;;;;;1.25;0.95;;;4.90;99.90;;;;;;5012570;28;20111;-70
2022/04/03 08:39:49;;;;;;;3.08;1.15;;;4.90;99.90;;;;;;5015585;28;20095;-69
2022/04/03 08:42:15;;;;;;;4.75;1.77;;;5.00;99.90;;;;;;5015823;28;20117;-71
2022/04/03 08:44:40;;;;;;;2.55;1.70;;;5.10;99.90;;;;;;5015945;28;20467;-70
2022/04/03 08:47:08;;;;;;;3.53;1.58;;;5.10;99.90;;;;;;4998227;28;20038;-69
2022/04/03 08:49:38;;;;;;;2.28;1.75;;;5.20;99.90;;;;;;5014354;28;20050;-70
2022/04/03 08:52:06;;;;;;;3.63;1.70;;;5.20;99.90;;;;;;5015568;28;20053;-70
2022/04/03 08:54:32;;;;;;;2.05;1.70;;;5.30;99.90;;;;;;5012391;28;20109;-71
2022/04/03 08:56:58;;;;;;;5.50;2.03;;;5.30;99.90;;;;;;5015640;28;20065;-69
2022/04/03 08:59:23;;;;;;;3.22;1.95;;;5.30;99.90;;;;;;5015420;28;20061;-68
2022/04/03 09:01:50;;;;;;;3.30;1.77;;;5.40;99.90;;;;;;5015548;28;20117;-69
2022/04/03 09:04:17;;;;;;;7.40;1.80;;;5.50;99.90;;;;;;5015125;28;20129;-72
2022/04/03 09:06:59;;;;;;;7.13;2.47;;;5.40;99.90;;;;;;5015858;28;20049;-68
2022/04/03 09:09:26;;;;;;;5.90;2.30;;;5.50;99.90;;;;;;4998593;28;20046;-69
2022/04/03 09:12:12;;;;;;;5.18;2.42;;;5.60;99.90;;;;;;5015101;28;20048;-68
2022/04/03 09:14:52;;;;;;;5.95;2.08;;;5.70;99.90;;;;;;5014892;28;20049;-71
2022/04/03 09:17:32;;;;;;;3.28;1.73;;;5.60;99.90;;;;;;5015271;28;20038;-68
2022/04/03 09:20:05;;;;;;;4.78;2.03;;;5.50;99.90;;;;;;5015131;28;20046;-70
2022/04/03 09:22:32;;;;;;;5.50;2.70;;;5.40;99.90;;;;;;4998220;28;20052;-71
2022/04/03 09:24:59;;;;;;;5.72;2.08;;;5.40;99.90;;;;;;5014939;28;20050;-69
2022/04/03 09:27:24;;;;;;;6.35;2.05;;;5.50;99.90;;;;;;5015056;28;20352;-72
2022/04/03 09:30:07;;;;;;;6.68;2.03;;;5.60;99.90;;;;;;5015303;28;20077;-70
2022/04/03 09:32:33;;;;;;;7.55;1.60;;;5.70;99.90;;;;;;5015326;28;20038;-69
2022/04/03 09:34:59;;;;;;;4.25;1.90;;;5.90;99.90;;;;;;5014906;28;20445;-70
2022/04/03 09:37:26;;;;;;;3.25;1.95;;;5.90;99.90;;;;;;5014346;28;20045;-70
2022/04/03 09:39:55;;;;;;;4.68;1.90;;;6.10;99.90;;;;;;5014809;28;20065;-70
2022/04/03 09:42:22;;;;;;;3.33;1.65;;;6.30;99.90;;;;;;5017386;28;20084;-71
2022/04/03 09:44:51;;;;;;;4.38;1.48;;;6.30;99.90;;;;;;5019077;28;20048;-71
2022/04/03 09:47:29;;;;;;;3.80;1.58;;;6.40;99.90;;;;;;5018663;28;20344;-69
2022/04/03 09:50:04;;;;;;;4.38;1.45;;;6.40;99.90;;;;;;5001376;28;20128;-69
2022/04/03 09:52:46;;;;;;;3.08;1.50;;;6.50;99.90;;;;;;5018730;28;20041;-69
2022/04/03 09:55:28;;;;;;;3.78;1.60;;;6.70;99.90;;;;;;5018996;28;20049;-69
2022/04/03 09:58:04;;;;;;;4.53;1.30;;;6.60;99.90;;;;;;5018836;28;20065;-69
2022/04/03 10:00:38;;;;;;;4.15;1.30;;;6.60;99.90;;;;;;4981728;28;20061;-71
2022/04/03 10:03:03;;;;;;;8.25;2.58;;;6.60;99.90;;;;;;4998746;28;20449;-70
2022/04/03 10:05:36;;;;;;;2.85;1.45;;;6.70;99.90;;;;;;4999564;28;20042;-70
2022/04/03 10:08:03;;;;;;;6.60;1.95;;;6.60;99.90;;;;;;4966166;28;20046;-70
2022/04/03 10:10:30;;;;;;;6.60;2.08;;;6.60;99.90;;;;;;4998477;28;20504;-71
2022/04/03 10:12:57;;;;;;;16.42;2.03;;;6.60;99.90;;;;;;4981197;28;20101;-72
2022/04/03 10:15:25;;;;;;;3.80;1.77;;;6.50;99.90;;;;;;4999027;28;20126;-70
2022/04/03 10:17:51;;;;;;;2.90;1.48;;;6.40;99.90;;;;;;4998944;28;20038;-70
2022/04/03 10:20:17;;;;;;;4.25;1.33;;;6.40;99.90;;;;;;4998925;28;20042;-71
2022/04/03 10:22:50;;;;;;;7.65;1.38;;;6.60;99.90;;;;;;4981890;28;20085;-70
2022/04/03 10:25:27;;;;;;;3.90;1.50;;;6.70;99.90;;;;;;4981160;28;20129;-70
2022/04/03 10:28:01;;;;;;;5.95;1.65;;;6.50;99.90;;;;;;4981928;28;20038;-70
2022/04/03 10:30:34;;;;;;;3.50;1.70;;;6.50;99.90;;;;;;4998427;28;20121;-69
2022/04/03 10:33:00;;;;;;;2.97;1.15;;;6.80;99.90;;;;;;4998722;28;20376;-69
2022/04/03 10:35:26;;;;;;;5.03;1.50;;;6.90;99.90;;;;;;4998602;28;20046;-71
2022/04/03 10:38:03;;;;;;;8.07;1.83;;;7.00;99.90;;;;;;4997621;28;20042;-70
2022/04/03 10:40:33;;;;;;;5.00;1.25;;;6.70;99.90;;;;;;4998426;28;20046;-70
2022/04/03 10:43:05;;;;;;;4.63;1.50;;;6.50;99.90;;;;;;4998196;28;20049;-70
2022/04/03 10:45:47;;;;;;;10.70;1.75;;;6.50;99.90;;;;;;4981177;28;20065;-69
2022/04/03 10:48:19;;;;;;;4.57;1.25;;;6.60;99.90;;;;;;4997872;28;20054;-69
2022/04/03 10:51:08;;;;;;;4.07;1.05;;;6.80;99.90;;;;;;4998045;28;20061;-69
2022/04/03 10:53:37;;;;;;;1.88;1.00;;;7.00;99.90;;;;;;4997465;28;20052;-70
2022/04/03 10:56:08;;;;;;;1.92;1.00;;;7.20;99.90;;;;;;4998190;28;20504;-71
2022/04/03 10:58:48;;;;;;;7.05;1.13;;;7.30;99.90;;;;;;5002821;28;20061;-68
2022/04/03 11:01:33;;;;;;;3.15;0.93;;;7.40;99.90;;;;;;5017399;28;20082;-70
2022/04/03 11:04:13;;;;;;;3.60;1.17;;;7.30;99.90;;;;;;5017982;28;20388;-69
2022/04/03 11:06:40;;;;;;;4.63;1.30;;;7.40;99.90;;;;;;5017327;28;20061;-71
2022/04/03 11:09:12;;;;;;;4.47;1.10;;;7.30;99.90;;;;;;5017397;28;20413;-70
2022/04/03 11:11:49;;;;;;;4.65;1.25;;;7.40;99.90;;;;;;5000211;28;20054;-69
2022/04/03 11:14:52;;;;;;;5.65;1.25;;;7.10;99.90;;;;;;5017468;28;20042;-69
2022/04/03 11:17:46;;;;;;;12.05;2.80;;;6.90;99.90;;;;;;5017433;28;20042;-71
2022/04/03 11:20:29;;;;;;;8.90;1.90;;;7.10;99.90;;;;;;5006913;28;20042;-71
2022/04/03 11:22:55;;;;;;;6.35;1.30;;;7.10;99.90;;;;;;5033065;28;20050;-70
2022/04/03 11:25:21;;;;;;;7.93;1.38;;;7.40;99.90;;;;;;5017299;28;20030;-69
2022/04/03 11:27:48;;;;;;;4.95;1.35;;;7.30;99.90;;;;;;5016970;28;20360;-71
2022/04/03 11:30:14;;;;;;;4.18;1.27;;;7.30;99.90;;;;;;5016721;28;20061;-71
2022/04/03 11:32:40;;;;;;;5.20;1.60;;;7.20;99.90;;;;;;5016341;28;20053;-70
2022/04/03 11:35:06;;;;;;;2.75;1.05;;;7.30;99.90;;;;;;5016766;28;20038;-70
2022/04/03 11:37:32;;;;;;;3.05;1.00;;;7.60;99.90;;;;;;5013655;28;20513;-72
2022/04/03 11:39:58;;;;;;;7.35;1.27;;;7.70;99.90;;;;;;5017002;28;20050;-69
2022/04/03 11:42:24;;;;;;;2.38;1.15;;;7.80;99.90;;;;;;4999552;28;20052;-69
2022/04/03 11:44:53;;;;;;;2.33;0.82;;;7.80;99.90;;;;;;4999320;28;20053;-71
2022/04/03 11:47:21;;;;;;;3.67;1.35;;;7.80;99.90;;;;;;5017057;28;20080;-68
2022/04/03 11:50:02;;;;;;;4.53;1.30;;;7.90;99.90;;;;;;5016794;28;20064;-71
2022/04/03 11:52:27;;;;;;;3.13;1.08;;;7.90;99.90;;;;;;4999523;28;20049;-69
2022/04/03 11:54:56;;;;;;;3.65;1.00;;;7.70;99.90;;;;;;5016597;28;20340;-70
2022/04/03 11:57:22;;;;;;;3.95;1.58;;;8.00;99.90;;;;;;5016322;28;20380;-69
2022/04/03 11:59:48;;;;;;;5.50;1.17;;;7.80;99.90;;;;;;5016720;28;20131;-69
2022/04/03 12:02:15;;;;;;;3.90;1.25;;;7.40;99.90;;;;;;4999295;28;20415;-70
2022/04/03 12:04:42;;;;;;;3.78;1.50;;;7.50;99.90;;;;;;5016494;28;20117;-70
2022/04/03 12:07:14;;;;;;;3.88;1.67;;;7.40;99.90;;;;;;5016340;28;20059;-69
2022/04/03 12:09:44;;;;;;;3.50;1.50;;;7.40;99.90;;;;;;5016101;28;20034;-69
2022/04/03 12:12:10;;;;;;;2.03;1.30;;;7.80;99.90;;;;;;5016724;28;20117;-70
2022/04/03 12:14:40;;;;;;;4.82;1.33;;;8.00;99.90;;;;;;5186094;22;20505;-72
2022/04/03 12:17:08;;;;;;;2.22;1.33;;;7.40;99.90;;;;;;5055213;28;20095;-71
2022/04/03 12:19:39;;;;;;;1.98;1.02;;;7.60;99.90;;;;;;5055595;28;20093;-70
2022/04/03 12:22:08;;;;;;;2.28;1.23;;;7.50;99.90;;;;;;5055781;28;20438;-71
2022/04/03 12:24:37;;;;;;;1.95;1.10;;;7.80;99.90;;;;;;5037791;28;20079;-70
2022/04/03 12:27:16;;;;;;;3.65;1.35;;;7.80;99.90;;;;;;5055140;28;20450;-71
2022/04/03 12:29:53;;;;;;;1.30;0.70;;;7.80;99.90;;;;;;5037577;28;20051;-69
2022/04/03 12:32:32;;;;;;;5.90;1.05;;;8.00;99.90;;;;;;5055483;28;20045;-70
2022/04/03 12:34:58;;;;;;;4.43;1.38;;;7.90;99.90;;;;;;5055193;28;20472;-71
2022/04/03 12:37:24;;;;;;;4.55;1.58;;;7.90;99.90;;;;;;5055307;28;20095;-70
2022/04/03 12:39:49;;;;;;;3.47;0.90;;;7.80;99.90;;;;;;5055119;28;20113;-70
2022/04/03 12:42:33;;;;;;;3.20;1.02;;;7.80;99.90;;;;;;5021020;28;20041;-69
2022/04/03 12:45:15;;;;;;;4.78;1.27;;;7.90;99.90;;;;;;5037697;28;20052;-70
2022/04/03 12:47:45;;;;;;;3.22;1.10;;;8.40;99.90;;;;;;5055132;28;20346;-69
2022/04/03 12:50:15;;;;;;;3.25;1.20;;;8.20;99.90;;;;;;5038068;28;20399;-70
2022/04/03 12:52:53;;;;;;;1.33;1.05;;;8.30;99.90;;;;;;5054992;28;20037;-73
2022/04/03 12:55:22;;;;;;;3.10;1.33;;;8.60;99.90;;;;;;5054777;28;20418;-70
2022/04/03 13:00:48;;;;;;;3.35;1.20;;;8.00;99.90;;;;;;5054904;28;20059;-71
2022/04/03 13:03:42;;;;;;;2.58;1.35;;;8.00;99.90;;;;;;5055074;28;20135;-71